createdAt,value
2019-06-08T00:00:34.614Z,0.00
2019-06-08T00:01:34.656Z,0.00
2019-06-08T00:02:34.622Z,0.00
2019-06-08T00:03:44.001Z,0.00
2019-06-08T00:04:34.563Z,0.00
2019-06-08T00:05:34.548Z,0.00
2019-06-08T00:06:34.526Z,0.00
2019-06-08T00:07:34.503Z,0.00
2019-06-08T00:08:34.506Z,0.00
2019-06-08T00:09:34.516Z,0.00
2019-06-08T00:10:34.496Z,0.00
2019-06-08T00:11:34.470Z,0.00
2019-06-08T00:12:34.459Z,0.00
2019-06-08T00:13:34.548Z,0.00
2019-06-08T00:14:34.457Z,0.00
2019-06-08T00:15:34.452Z,0.00
2019-06-08T00:16:34.429Z,0.00
2019-06-08T00:17:38.895Z,0.00
2019-06-08T00:18:34.367Z,0.00
2019-06-08T00:19:34.410Z,0.00
2019-06-08T00:20:34.378Z,0.00
2019-06-08T00:21:34.363Z,0.00
2019-06-08T00:22:34.327Z,0.00
2019-06-08T00:23:34.332Z,0.00
2019-06-08T00:24:34.315Z,0.00
2019-06-08T00:25:34.353Z,0.00
2019-06-08T00:26:34.300Z,0.00
2019-06-08T00:27:34.330Z,0.00
2019-06-08T00:28:34.280Z,0.00
2019-06-08T00:29:34.260Z,0.00
2019-06-08T00:30:35.243Z,0.00
2019-06-08T00:31:34.253Z,0.00
2019-06-08T00:32:34.250Z,0.00
2019-06-08T00:33:34.238Z,0.00
2019-06-08T00:34:34.236Z,0.00
2019-06-08T00:35:34.220Z,0.00
2019-06-08T00:36:34.198Z,0.00
2019-06-08T00:37:34.193Z,0.00
2019-06-08T00:38:34.176Z,0.00
2019-06-08T00:39:34.165Z,0.00
2019-06-08T00:40:34.156Z,0.00
2019-06-08T00:41:34.171Z,0.00
2019-06-08T00:42:34.178Z,0.00
2019-06-08T00:43:34.119Z,0.00
2019-06-08T00:44:43.512Z,0.00
2019-06-08T00:45:34.075Z,0.00
2019-06-08T00:46:34.099Z,0.00
2019-06-08T00:47:46.949Z,0.00
2019-06-08T00:48:35.091Z,0.00
2019-06-08T00:49:34.083Z,0.00
2019-06-08T00:50:34.043Z,0.00
2019-06-08T00:51:34.011Z,0.00
2019-06-08T00:52:34.067Z,0.00
2019-06-08T00:53:34.007Z,0.00
2019-06-08T00:54:34.022Z,0.00
2019-06-08T00:55:33.988Z,0.00
2019-06-08T00:56:33.993Z,0.00
2019-06-08T00:57:33.991Z,0.00
2019-06-08T00:58:33.958Z,0.00
2019-06-08T00:59:33.930Z,0.00
2019-06-08T01:00:33.959Z,0.00
2019-06-08T01:01:44.020Z,0.00
2019-06-08T01:02:44.077Z,0.00
2019-06-08T01:03:42.584Z,0.00
2019-06-08T01:04:33.877Z,0.00
2019-06-08T01:05:34.482Z,0.00
2019-06-08T01:06:43.139Z,0.00
2019-06-08T01:07:43.138Z,0.00
2019-06-08T01:08:33.855Z,0.00
2019-06-08T01:09:33.862Z,0.00
2019-06-08T01:10:33.820Z,0.00
2019-06-08T01:11:33.792Z,0.00
2019-06-08T01:12:33.797Z,0.00
2019-06-08T01:13:33.822Z,0.00
2019-06-08T01:14:33.777Z,0.00
2019-06-08T01:15:34.461Z,0.00
2019-06-08T01:16:33.838Z,0.00
2019-06-08T01:17:33.751Z,0.00
2019-06-08T01:18:33.754Z,0.00
2019-06-08T01:19:33.766Z,0.00
2019-06-08T01:20:33.710Z,0.00
2019-06-08T01:21:33.726Z,0.00
2019-06-08T01:22:33.706Z,0.00
2019-06-08T01:23:33.685Z,0.00
2019-06-08T01:24:33.747Z,0.00
2019-06-08T01:25:33.669Z,0.00
2019-06-08T01:26:33.663Z,0.00
2019-06-08T01:27:33.641Z,0.00
2019-06-08T01:28:33.646Z,0.00
2019-06-08T01:29:33.678Z,0.00
2019-06-08T01:30:33.634Z,0.00
2019-06-08T01:31:33.642Z,0.00
2019-06-08T01:32:33.661Z,0.00
2019-06-08T01:33:33.572Z,0.00
2019-06-08T01:34:33.573Z,0.00
2019-06-08T01:35:33.606Z,0.00
2019-06-08T01:36:33.554Z,0.00
2019-06-08T01:37:33.535Z,0.00
2019-06-08T01:38:33.573Z,0.00
2019-06-08T01:39:33.508Z,0.00
2019-06-08T01:40:33.542Z,0.00
2019-06-08T01:41:33.546Z,0.00
2019-06-08T01:42:33.497Z,0.00
2019-06-08T01:43:33.474Z,0.00
2019-06-08T01:44:33.475Z,0.00
2019-06-08T01:45:33.506Z,0.00
2019-06-08T01:46:33.441Z,0.00
2019-06-08T01:47:33.453Z,0.00
2019-06-08T01:48:33.416Z,0.00
2019-06-08T01:49:33.426Z,0.00
2019-06-08T01:50:33.557Z,0.00
2019-06-08T01:51:33.428Z,0.00
2019-06-08T01:52:33.400Z,0.00
2019-06-08T01:53:33.358Z,0.00
2019-06-08T01:54:33.426Z,0.00
2019-06-08T01:55:33.363Z,0.00
2019-06-08T01:56:33.455Z,0.00
2019-06-08T01:57:33.795Z,0.00
2019-06-08T01:58:33.541Z,0.00
2019-06-08T01:59:34.741Z,0.00
2019-06-08T02:00:39.248Z,0.00
2019-06-08T02:01:34.301Z,0.00
2019-06-08T02:02:34.196Z,0.00
2019-06-08T02:03:34.781Z,0.00
2019-06-08T02:04:34.726Z,0.00
2019-06-08T02:05:34.450Z,0.00
2019-06-08T02:06:34.558Z,0.00
2019-06-08T02:07:34.295Z,0.00
2019-06-08T02:08:33.238Z,0.00
2019-06-08T02:09:33.193Z,0.00
2019-06-08T02:10:33.193Z,0.00
2019-06-08T02:11:33.187Z,4.00
2019-06-08T02:12:33.175Z,4.00
2019-06-08T02:13:33.208Z,4.00
2019-06-08T02:14:33.305Z,4.00
2019-06-08T02:15:33.867Z,0.00
2019-06-08T02:16:33.399Z,0.00
2019-06-08T02:17:33.502Z,4.00
2019-06-08T02:18:43.817Z,4.00
2019-06-08T02:19:34.801Z,4.00
2019-06-08T02:20:33.092Z,4.00
2019-06-08T02:21:33.068Z,4.00
2019-06-08T02:22:33.145Z,4.00
2019-06-08T02:23:33.170Z,4.00
2019-06-08T02:24:33.370Z,4.00
2019-06-08T02:25:33.562Z,4.00
2019-06-08T02:26:35.184Z,4.00
2019-06-08T02:27:33.569Z,4.00
2019-06-08T02:28:33.646Z,8.00
2019-06-08T02:29:33.717Z,8.00
2019-06-08T02:30:36.103Z,8.00
2019-06-08T02:31:34.797Z,8.00
2019-06-08T02:32:33.543Z,8.00
2019-06-08T02:33:34.691Z,12.00
2019-06-08T02:34:35.046Z,8.00
2019-06-08T02:35:35.074Z,12.00
2019-06-08T02:36:33.723Z,16.00
2019-06-08T02:37:33.165Z,12.00
2019-06-08T02:38:34.603Z,12.00
2019-06-08T02:39:32.942Z,12.00
2019-06-08T02:40:34.582Z,20.00
2019-06-08T02:41:33.181Z,16.00
2019-06-08T02:42:34.672Z,20.00
2019-06-08T02:43:33.375Z,28.00
2019-06-08T02:45:50.279Z,32.00
2019-06-08T02:47:00.291Z,44.00
2019-06-08T02:47:50.199Z,48.00
2019-06-08T02:49:03.939Z,48.00
2019-06-08T02:49:50.146Z,52.00
2019-06-08T02:50:59.167Z,52.00
2019-06-08T02:51:50.186Z,64.00
2019-06-08T02:52:50.137Z,64.00
2019-06-08T02:53:50.154Z,56.00
2019-06-08T02:54:50.146Z,52.00
2019-06-08T02:55:50.103Z,52.00
2019-06-08T02:56:50.088Z,52.00
2019-06-08T02:57:50.108Z,52.00
2019-06-08T02:58:50.104Z,64.00
2019-06-08T02:59:50.066Z,72.00
2019-06-08T03:00:50.060Z,84.00
2019-06-08T03:01:50.014Z,96.00
2019-06-08T03:02:50.031Z,100.00
2019-06-08T03:03:50.009Z,108.00
2019-06-08T03:04:50.034Z,120.00
2019-06-08T03:05:49.993Z,132.00
2019-06-08T03:06:50.037Z,128.00
2019-06-08T03:07:49.965Z,124.00
2019-06-08T03:08:50.005Z,120.00
2019-06-08T03:09:49.957Z,120.00
2019-06-08T03:10:49.951Z,124.00
2019-06-08T03:11:49.941Z,132.00
2019-06-08T03:12:49.934Z,140.00
2019-06-08T03:13:49.890Z,152.00
2019-06-08T03:14:49.949Z,160.00
2019-06-08T03:15:49.888Z,168.00
2019-06-08T03:16:49.904Z,172.00
2019-06-08T03:17:49.884Z,176.00
2019-06-08T03:18:49.881Z,184.00
2019-06-08T03:19:49.841Z,184.00
2019-06-08T03:20:49.825Z,176.00
2019-06-08T03:21:49.843Z,164.00
2019-06-08T03:22:49.810Z,160.00
2019-06-08T03:23:49.810Z,188.00
2019-06-08T03:24:49.847Z,248.00
2019-06-08T03:25:53.046Z,276.00
2019-06-08T03:26:49.838Z,272.00
2019-06-08T03:27:49.774Z,256.00
2019-06-08T03:28:49.761Z,252.00
2019-06-08T03:29:49.765Z,244.00
2019-06-08T03:30:54.451Z,240.00
2019-06-08T03:31:55.678Z,232.00
2019-06-08T03:32:56.430Z,208.00
2019-06-08T03:33:55.827Z,192.00
2019-06-08T03:34:55.716Z,184.00
2019-06-08T03:35:57.074Z,188.00
2019-06-08T03:36:56.128Z,200.00
2019-06-08T03:37:50.702Z,200.00
2019-06-08T03:38:49.636Z,184.00
2019-06-08T03:39:49.614Z,168.00
2019-06-08T03:40:49.625Z,160.00
2019-06-08T03:41:49.625Z,160.00
2019-06-08T03:42:50.975Z,164.00
2019-06-08T03:43:49.595Z,160.00
2019-06-08T03:44:49.585Z,144.00
2019-06-08T03:45:49.595Z,140.00
2019-06-08T03:46:49.589Z,136.00
2019-06-08T03:47:49.579Z,140.00
2019-06-08T03:48:49.560Z,140.00
2019-06-08T03:49:56.763Z,144.00
2019-06-08T03:50:50.520Z,148.00
2019-06-08T03:51:49.506Z,160.00
2019-06-08T03:52:49.478Z,172.00
2019-06-08T03:53:49.515Z,196.00
2019-06-08T03:54:49.477Z,244.00
2019-06-08T03:55:49.480Z,288.00
2019-06-08T03:56:49.446Z,320.00
2019-06-08T03:57:49.451Z,336.00
2019-06-08T03:58:49.464Z,356.00
2019-06-08T03:59:49.436Z,376.00
2019-06-08T04:00:49.406Z,432.00
2019-06-08T04:01:50.005Z,472.00
2019-06-08T04:04:07.124Z,536.00
2019-06-08T04:05:06.452Z,584.00
2019-06-08T04:06:06.422Z,624.00
2019-06-08T04:07:06.465Z,688.00
2019-06-08T04:08:06.412Z,780.00
2019-06-08T04:09:06.560Z,852.00
2019-06-08T04:10:06.392Z,908.00
2019-06-08T04:11:06.368Z,1008.00
2019-06-08T04:12:06.364Z,1100.00
2019-06-08T04:13:06.353Z,1216.00
2019-06-08T04:14:06.347Z,1392.00
2019-06-08T04:15:06.326Z,1524.00
2019-06-08T04:16:06.346Z,1560.00
2019-06-08T04:17:06.345Z,1488.00
2019-06-08T04:18:06.301Z,1272.00
2019-06-08T04:19:06.297Z,1068.00
2019-06-08T04:20:11.236Z,952.00
2019-06-08T04:21:07.268Z,848.00
2019-06-08T04:22:06.257Z,768.00
2019-06-08T04:23:06.233Z,788.00
2019-06-08T04:24:06.298Z,980.00
2019-06-08T04:25:06.228Z,1136.00
2019-06-08T04:26:06.218Z,1132.00
2019-06-08T04:27:06.185Z,1032.00
2019-06-08T04:28:06.235Z,1096.00
2019-06-08T04:29:06.183Z,1296.00
2019-06-08T04:30:06.196Z,1576.00
2019-06-08T04:31:06.176Z,1796.00
2019-06-08T04:32:06.184Z,2028.00
2019-06-08T04:33:06.152Z,2124.00
2019-06-08T04:34:06.149Z,2104.00
2019-06-08T04:35:06.175Z,2072.00
2019-06-08T04:36:06.098Z,2220.00
2019-06-08T04:37:06.082Z,2376.00
2019-06-08T04:38:06.093Z,2444.00
2019-06-08T04:39:06.128Z,2500.00
2019-06-08T04:40:06.042Z,2620.00
2019-06-08T04:41:06.071Z,2772.00
2019-06-08T04:42:06.071Z,2864.00
2019-06-08T04:43:06.079Z,2884.00
2019-06-08T04:44:06.036Z,2876.00
2019-06-08T04:45:06.024Z,2896.00
2019-06-08T04:46:05.991Z,2868.00
2019-06-08T04:47:05.988Z,2888.00
2019-06-08T04:48:09.496Z,2852.00
2019-06-08T04:49:06.021Z,2796.00
2019-06-08T04:50:21.466Z,2760.00
2019-06-08T04:51:07.813Z,2800.00
2019-06-08T04:52:05.966Z,2904.00
2019-06-08T04:53:05.985Z,2992.00
2019-06-08T04:54:05.917Z,2992.00
2019-06-08T04:55:06.026Z,3060.00
2019-06-08T04:56:09.207Z,3052.00
2019-06-08T04:57:05.973Z,2960.00
2019-06-08T04:58:05.891Z,2836.00
2019-06-08T05:00:23.417Z,2432.00
2019-06-08T05:01:23.341Z,2260.00
2019-06-08T05:02:23.335Z,2060.00
2019-06-08T05:03:23.296Z,1972.00
2019-06-08T05:04:23.280Z,2004.00
2019-06-08T05:05:24.081Z,2044.00
2019-06-08T05:06:23.241Z,1956.00
2019-06-08T05:07:23.221Z,1872.00
2019-06-08T05:08:23.287Z,1820.00
2019-06-08T05:09:32.170Z,1860.00
2019-06-08T05:10:23.257Z,1912.00
2019-06-08T05:11:23.165Z,2024.00
2019-06-08T05:12:23.152Z,1968.00
2019-06-08T05:13:23.254Z,2020.00
2019-06-08T05:14:23.152Z,2176.00
2019-06-08T05:15:23.197Z,2512.00
2019-06-08T05:16:23.118Z,2980.00
2019-06-08T05:17:23.162Z,3316.00
2019-06-08T05:18:25.979Z,3380.00
2019-06-08T05:19:23.081Z,2912.00
2019-06-08T05:20:37.732Z,2560.00
2019-06-08T05:21:24.089Z,2404.00
2019-06-08T05:22:23.075Z,2348.00
2019-06-08T05:23:23.025Z,2248.00
2019-06-08T05:24:23.036Z,1996.00
2019-06-08T05:25:23.036Z,1848.00
2019-06-08T05:26:23.058Z,1796.00
2019-06-08T05:27:23.022Z,1824.00
2019-06-08T05:28:23.041Z,1920.00
2019-06-08T05:29:23.041Z,2048.00
2019-06-08T05:30:22.998Z,3496.00
2019-06-08T05:31:22.965Z,3152.00
2019-06-08T05:32:23.023Z,2444.00
2019-06-08T05:33:22.977Z,2940.00
2019-06-08T05:34:22.960Z,3464.00
2019-06-08T05:35:22.947Z,3188.00
2019-06-08T05:36:22.944Z,3552.00
2019-06-08T05:37:22.995Z,3572.00
2019-06-08T05:38:22.880Z,3732.00
2019-06-08T05:39:22.914Z,3732.00
2019-06-08T05:40:22.873Z,3752.00
2019-06-08T05:41:24.198Z,3760.00
2019-06-08T05:42:22.839Z,3772.00
2019-06-08T05:43:22.883Z,3808.00
2019-06-08T05:44:22.859Z,3828.00
2019-06-08T05:45:22.803Z,3848.00
2019-06-08T05:46:22.826Z,3884.00
2019-06-08T05:47:22.811Z,3900.00
2019-06-08T05:48:22.784Z,3920.00
2019-06-08T05:49:22.764Z,3932.00
2019-06-08T05:50:22.782Z,3936.00
2019-06-08T05:51:22.758Z,3980.00
2019-06-08T05:52:22.773Z,3996.00
2019-06-08T05:53:22.752Z,4040.00
2019-06-08T05:54:22.794Z,4068.00
2019-06-08T05:55:22.751Z,4096.00
2019-06-08T05:56:22.701Z,4128.00
2019-06-08T05:57:22.717Z,4136.00
2019-06-08T05:58:22.682Z,4140.00
2019-06-08T05:59:22.670Z,4160.00
2019-06-08T06:00:22.668Z,4188.00
2019-06-08T06:01:23.671Z,4204.00
2019-06-08T06:02:22.624Z,4240.00
2019-06-08T06:03:22.627Z,4244.00
2019-06-08T06:04:22.611Z,4264.00
2019-06-08T06:05:22.586Z,4320.00
2019-06-08T06:06:22.705Z,4324.00
2019-06-08T06:07:22.637Z,4356.00
2019-06-08T06:08:22.564Z,4344.00
2019-06-08T06:09:22.585Z,4432.00
2019-06-08T06:10:22.725Z,4524.00
2019-06-08T06:11:22.600Z,4684.00
2019-06-08T06:12:23.354Z,4956.00
2019-06-08T06:13:23.357Z,5276.00
2019-06-08T06:14:22.511Z,5704.00
2019-06-08T06:15:22.491Z,6256.00
2019-06-08T06:16:22.526Z,6960.00
2019-06-08T06:17:22.539Z,7540.00
2019-06-08T06:18:22.443Z,7932.00
2019-06-08T06:19:22.447Z,8016.00
2019-06-08T06:20:22.505Z,8044.00
2019-06-08T06:21:22.423Z,8296.00
2019-06-08T06:22:22.631Z,8788.00
2019-06-08T06:23:22.405Z,9356.00
2019-06-08T06:24:22.431Z,9852.00
2019-06-08T06:25:22.457Z,8368.00
2019-06-08T06:26:22.370Z,9088.00
2019-06-08T06:27:22.429Z,6996.00
2019-06-08T06:28:22.436Z,6756.00
2019-06-08T06:29:22.376Z,8200.00
2019-06-08T06:30:22.381Z,9084.00
2019-06-08T06:31:22.342Z,7024.00
2019-06-08T06:32:22.328Z,5828.00
2019-06-08T06:33:22.334Z,5172.00
2019-06-08T06:34:22.409Z,4636.00
2019-06-08T06:35:22.296Z,4132.00
2019-06-08T06:36:22.264Z,3452.00
2019-06-08T06:37:22.361Z,2916.00
2019-06-08T06:38:22.329Z,2680.00
2019-06-08T06:39:22.334Z,2564.00
2019-06-08T06:40:22.645Z,2572.00
2019-06-08T06:41:22.420Z,2712.00
2019-06-08T06:42:24.788Z,5544.00
2019-06-08T06:43:22.545Z,5908.00
2019-06-08T06:44:22.583Z,6348.00
2019-06-08T06:45:22.395Z,6780.00
2019-06-08T06:46:22.268Z,6968.00
2019-06-08T06:47:22.259Z,7056.00
2019-06-08T06:48:23.610Z,6684.00
2019-06-08T06:49:22.214Z,6240.00
2019-06-08T06:50:22.233Z,5964.00
2019-06-08T06:51:26.225Z,5996.00
2019-06-08T06:52:22.249Z,6104.00
2019-06-08T06:53:22.708Z,6300.00
2019-06-08T06:54:22.162Z,6420.00
2019-06-08T06:55:25.231Z,6872.00
2019-06-08T06:56:22.224Z,7932.00
2019-06-08T06:57:22.217Z,9244.00
2019-06-08T06:58:22.182Z,10348.00
2019-06-08T06:59:22.198Z,9260.00
2019-06-08T07:00:22.190Z,8808.00
2019-06-08T07:01:22.098Z,9804.00
2019-06-08T07:02:22.625Z,10236.00
2019-06-08T07:03:22.623Z,12420.00
2019-06-08T07:04:22.101Z,9868.00
2019-06-08T07:05:22.113Z,10256.00
2019-06-08T07:06:22.052Z,11904.00
2019-06-08T07:07:22.113Z,11008.00
2019-06-08T07:08:22.155Z,9836.00
2019-06-08T07:09:22.010Z,9396.00
2019-06-08T07:10:22.273Z,8924.00
2019-06-08T07:11:21.909Z,8436.00
2019-06-08T07:12:21.918Z,8064.00
2019-06-08T07:13:22.118Z,8772.00
2019-06-08T07:14:21.869Z,7796.00
2019-06-08T07:15:21.897Z,8032.00
2019-06-08T07:16:21.877Z,8184.00
2019-06-08T07:17:21.830Z,8128.00
2019-06-08T07:18:21.846Z,8016.00
2019-06-08T07:19:21.812Z,8284.00
2019-06-08T07:20:21.840Z,8944.00
2019-06-08T07:21:21.880Z,9672.00
2019-06-08T07:22:21.779Z,10220.00
2019-06-08T07:23:21.759Z,10344.00
2019-06-08T07:24:21.787Z,10656.00
2019-06-08T07:25:21.743Z,10904.00
2019-06-08T07:26:21.746Z,11148.00
2019-06-08T07:27:21.727Z,11416.00
2019-06-08T07:28:21.688Z,11620.00
2019-06-08T07:29:21.688Z,12664.00
2019-06-08T07:30:21.747Z,12320.00
2019-06-08T07:31:21.689Z,11332.00
2019-06-08T07:32:21.677Z,8840.00
2019-06-08T07:33:21.670Z,9812.00
2019-06-08T07:34:21.654Z,10516.00
2019-06-08T07:35:21.632Z,10136.00
2019-06-08T07:36:21.654Z,11000.00
2019-06-08T07:37:21.601Z,11200.00
2019-06-08T07:38:21.643Z,11440.00
2019-06-08T07:39:21.605Z,11420.00
2019-06-08T07:40:21.602Z,11416.00
2019-06-08T07:41:21.587Z,11348.00
2019-06-08T07:42:21.605Z,11108.00
2019-06-08T07:43:21.613Z,10760.00
2019-06-08T07:44:21.534Z,10128.00
2019-06-08T07:45:21.520Z,9668.00
2019-06-08T07:46:21.547Z,9412.00
2019-06-08T07:47:21.737Z,8860.00
2019-06-08T07:48:21.501Z,8572.00
2019-06-08T07:49:21.516Z,8324.00
2019-06-08T07:50:21.502Z,8076.00
2019-06-08T07:51:21.518Z,7980.00
2019-06-08T07:52:21.480Z,7840.00
2019-06-08T07:53:21.476Z,7760.00
2019-06-08T07:54:21.450Z,7728.00
2019-06-08T07:55:21.430Z,7908.00
2019-06-08T07:56:21.432Z,8156.00
2019-06-08T07:57:21.413Z,8328.00
2019-06-08T07:58:21.393Z,8436.00
2019-06-08T07:59:21.390Z,8640.00
2019-06-08T08:00:21.371Z,9016.00
2019-06-08T08:01:35.256Z,9336.00
2019-06-08T08:02:22.424Z,9552.00
2019-06-08T08:03:21.394Z,9476.00
2019-06-08T08:04:21.310Z,9420.00
2019-06-08T08:05:21.367Z,9400.00
2019-06-08T08:06:21.416Z,9668.00
2019-06-08T08:07:21.287Z,9668.00
2019-06-08T08:08:21.310Z,9640.00
2019-06-08T08:09:21.318Z,9684.00
2019-06-08T08:10:21.296Z,10072.00
2019-06-08T08:11:21.315Z,11228.00
2019-06-08T08:12:21.336Z,11252.00
2019-06-08T08:13:21.221Z,10224.00
2019-06-08T08:14:21.233Z,9476.00
2019-06-08T08:15:21.191Z,8728.00
2019-06-08T08:16:21.221Z,7872.00
2019-06-08T08:17:21.203Z,7076.00
2019-06-08T08:18:21.162Z,6756.00
2019-06-08T08:19:21.206Z,6768.00
2019-06-08T08:20:21.161Z,6636.00
2019-06-08T08:21:25.509Z,6452.00
2019-06-08T08:22:26.023Z,6256.00
2019-06-08T08:23:22.200Z,6168.00
2019-06-08T08:24:21.277Z,6000.00
2019-06-08T08:25:21.130Z,5724.00
2019-06-08T08:26:21.088Z,5416.00
2019-06-08T08:27:21.459Z,5048.00
2019-06-08T08:28:21.054Z,4948.00
2019-06-08T08:29:21.088Z,5064.00
2019-06-08T08:30:21.051Z,5260.00
2019-06-08T08:31:21.023Z,5748.00
2019-06-08T08:32:21.032Z,6356.00
2019-06-08T08:33:21.096Z,7028.00
2019-06-08T08:34:21.001Z,7960.00
2019-06-08T08:35:20.991Z,9324.00
2019-06-08T08:36:21.152Z,10064.00
2019-06-08T08:37:20.969Z,10232.00
2019-06-08T08:38:20.990Z,9996.00
2019-06-08T08:39:20.971Z,9452.00
2019-06-08T08:40:20.944Z,9052.00
2019-06-08T08:41:20.982Z,8532.00
2019-06-08T08:42:20.938Z,8124.00
2019-06-08T08:43:23.011Z,7864.00
2019-06-08T08:44:20.880Z,8036.00
2019-06-08T08:45:20.891Z,8436.00
2019-06-08T08:46:20.943Z,8516.00
2019-06-08T08:47:21.126Z,8156.00
2019-06-08T08:48:27.521Z,7852.00
2019-06-08T08:49:21.869Z,7832.00
2019-06-08T08:50:20.863Z,7892.00
2019-06-08T08:51:20.801Z,7912.00
2019-06-08T08:52:33.724Z,7356.00
2019-06-08T08:53:21.816Z,6440.00
2019-06-08T08:54:20.782Z,5640.00
2019-06-08T08:55:20.781Z,5380.00
2019-06-08T08:56:20.778Z,5200.00
2019-06-08T08:57:20.785Z,5004.00
2019-06-08T08:58:20.754Z,5676.00
2019-06-08T08:59:20.747Z,6752.00
2019-06-08T09:00:20.842Z,8128.00
2019-06-08T09:01:20.896Z,9688.00
2019-06-08T09:02:21.393Z,11076.00
2019-06-08T09:03:28.710Z,11596.00
2019-06-08T09:04:21.725Z,11636.00
2019-06-08T09:05:20.683Z,11612.00
2019-06-08T09:06:20.666Z,11772.00
2019-06-08T09:07:20.760Z,12072.00
2019-06-08T09:08:23.215Z,12608.00
2019-06-08T09:09:21.649Z,13168.00
2019-06-08T09:10:20.629Z,13600.00
2019-06-08T09:11:20.634Z,13692.00
2019-06-08T09:12:20.571Z,13784.00
2019-06-08T09:13:20.816Z,14276.00
2019-06-08T09:14:20.727Z,14088.00
2019-06-08T09:15:20.726Z,13712.00
2019-06-08T09:16:22.711Z,13352.00
2019-06-08T09:17:21.060Z,13076.00
2019-06-08T09:18:20.563Z,12784.00
2019-06-08T09:19:20.997Z,12456.00
2019-06-08T09:20:20.589Z,12020.00
2019-06-08T09:21:20.551Z,11452.00
2019-06-08T09:22:20.501Z,10884.00
2019-06-08T09:23:21.920Z,10504.00
2019-06-08T09:24:20.459Z,10324.00
2019-06-08T09:25:20.436Z,10064.00
2019-06-08T09:26:20.420Z,10108.00
2019-06-08T09:27:20.602Z,10456.00
2019-06-08T09:28:20.510Z,11000.00
2019-06-08T09:29:20.380Z,11912.00
2019-06-08T09:30:20.724Z,11952.00
2019-06-08T09:31:20.410Z,11840.00
2019-06-08T09:32:20.431Z,12100.00
2019-06-08T09:33:20.356Z,12436.00
2019-06-08T09:34:20.450Z,12344.00
2019-06-08T09:35:21.348Z,12076.00
2019-06-08T09:36:20.343Z,12608.00
2019-06-08T09:37:20.384Z,13160.00
2019-06-08T09:38:20.349Z,14200.00
2019-06-08T09:39:20.314Z,13948.00
2019-06-08T09:40:22.184Z,12828.00
2019-06-08T09:41:21.214Z,12796.00
2019-06-08T09:42:21.219Z,13224.00
2019-06-08T09:43:20.319Z,13716.00
2019-06-08T09:44:20.626Z,14252.00
2019-06-08T09:45:20.347Z,14224.00
2019-06-08T09:46:20.288Z,14300.00
2019-06-08T09:47:22.296Z,14500.00
2019-06-08T09:48:20.259Z,14212.00
2019-06-08T09:49:20.169Z,13312.00
2019-06-08T09:50:21.272Z,12600.00
2019-06-08T09:51:20.148Z,12248.00
2019-06-08T09:52:21.713Z,11944.00
2019-06-08T09:53:28.519Z,12168.00
2019-06-08T09:54:21.171Z,12924.00
2019-06-08T09:55:20.221Z,14100.00
2019-06-08T09:56:20.288Z,14300.00
2019-06-08T09:57:20.106Z,13964.00
2019-06-08T09:58:20.105Z,13084.00
2019-06-08T09:59:20.110Z,12476.00
2019-06-08T10:00:22.249Z,12264.00
2019-06-08T10:01:21.113Z,11396.00
2019-06-08T10:02:20.322Z,11096.00
2019-06-08T10:03:20.046Z,11016.00
2019-06-08T10:04:20.036Z,10316.00
2019-06-08T10:05:20.070Z,9844.00
2019-06-08T10:06:20.436Z,10460.00
2019-06-08T10:07:20.153Z,11324.00
2019-06-08T10:08:20.742Z,12472.00
2019-06-08T10:09:20.033Z,13580.00
2019-06-08T10:10:19.975Z,14016.00
2019-06-08T10:11:19.952Z,13728.00
2019-06-08T10:12:19.947Z,13432.00
2019-06-08T10:13:19.975Z,12932.00
2019-06-08T10:14:19.996Z,13056.00
2019-06-08T10:15:19.937Z,12592.00
2019-06-08T10:16:19.967Z,13828.00
2019-06-08T10:17:21.071Z,14408.00
2019-06-08T10:18:19.913Z,15268.00
2019-06-08T10:19:19.909Z,15936.00
2019-06-08T10:20:19.927Z,14876.00
2019-06-08T10:21:21.126Z,14152.00
2019-06-08T10:22:20.087Z,13860.00
2019-06-08T10:23:30.718Z,13544.00
2019-06-08T10:24:21.018Z,12556.00
2019-06-08T10:25:20.802Z,10956.00
2019-06-08T10:26:19.999Z,10480.00
2019-06-08T10:27:19.824Z,10196.00
2019-06-08T10:28:21.706Z,9572.00
2019-06-08T10:29:19.911Z,8900.00
2019-06-08T10:30:19.772Z,8356.00
2019-06-08T10:31:33.169Z,8336.00
2019-06-08T10:32:20.773Z,8216.00
2019-06-08T10:33:20.189Z,8156.00
2019-06-08T10:34:19.714Z,8548.00
2019-06-08T10:35:21.011Z,9336.00
2019-06-08T10:36:19.713Z,10104.00
2019-06-08T10:37:19.731Z,10876.00
2019-06-08T10:38:19.716Z,12048.00
2019-06-08T10:39:19.649Z,13720.00
2019-06-08T10:40:19.681Z,15872.00
2019-06-08T10:41:21.836Z,16480.00
2019-06-08T10:42:19.696Z,16416.00
2019-06-08T10:43:20.013Z,16448.00
2019-06-08T10:44:19.721Z,16480.00
2019-06-08T10:45:19.676Z,15936.00
2019-06-08T10:46:20.970Z,15032.00
2019-06-08T10:47:19.613Z,14828.00
2019-06-08T10:48:19.578Z,14772.00
2019-06-08T10:49:19.854Z,15808.00
2019-06-08T10:50:19.629Z,17344.00
2019-06-08T10:51:19.577Z,18368.00
2019-06-08T10:52:20.349Z,17504.00
2019-06-08T10:53:19.516Z,15488.00
2019-06-08T10:54:19.585Z,16416.00
2019-06-08T10:55:19.560Z,18880.00
2019-06-08T10:56:19.519Z,17568.00
2019-06-08T10:57:19.499Z,16128.00
2019-06-08T10:58:19.620Z,13692.00
2019-06-08T10:59:19.462Z,12884.00
2019-06-08T11:00:23.569Z,14092.00
2019-06-08T11:01:19.518Z,14888.00
2019-06-08T11:02:20.236Z,16320.00
2019-06-08T11:03:19.449Z,17024.00
2019-06-08T11:04:19.835Z,14648.00
2019-06-08T11:05:19.470Z,12788.00
2019-06-08T11:06:19.376Z,11516.00
2019-06-08T11:07:19.396Z,10736.00
2019-06-08T11:08:19.369Z,10900.00
2019-06-08T11:09:20.345Z,9152.00
2019-06-08T11:10:20.204Z,7900.00
2019-06-08T11:11:20.182Z,6972.00
2019-06-08T11:12:19.460Z,7928.00
2019-06-08T11:13:19.288Z,9692.00
2019-06-08T11:14:22.553Z,10824.00
2019-06-08T11:15:19.290Z,12428.00
2019-06-08T11:16:19.325Z,12224.00
2019-06-08T11:17:19.301Z,10712.00
2019-06-08T11:18:20.545Z,8828.00
2019-06-08T11:19:20.378Z,8652.00
2019-06-08T11:20:19.225Z,10036.00
2019-06-08T11:21:21.966Z,13768.00
2019-06-08T11:22:19.224Z,14912.00
2019-06-08T11:23:19.174Z,13508.00
2019-06-08T11:24:24.668Z,13480.00
2019-06-08T11:25:20.337Z,13400.00
2019-06-08T11:26:24.026Z,13820.00
2019-06-08T11:27:20.175Z,13312.00
2019-06-08T11:28:19.205Z,13156.00
2019-06-08T11:29:19.118Z,13120.00
2019-06-08T11:30:26.709Z,13316.00
2019-06-08T11:31:20.320Z,13920.00
2019-06-08T11:32:22.002Z,14588.00
2019-06-08T11:33:19.710Z,14960.00
2019-06-08T11:34:21.755Z,14640.00
2019-06-08T11:35:19.127Z,14304.00
2019-06-08T11:36:19.262Z,14016.00
2019-06-08T11:37:21.072Z,14792.00
2019-06-08T11:38:20.282Z,16960.00
2019-06-08T11:39:19.030Z,20576.00
2019-06-08T11:40:20.851Z,22528.00
2019-06-08T11:41:22.626Z,22240.00
2019-06-08T11:42:19.247Z,21760.00
2019-06-08T11:43:18.961Z,16896.00
2019-06-08T11:44:18.951Z,13460.00
2019-06-08T11:45:18.985Z,11452.00
2019-06-08T11:46:21.585Z,10196.00
2019-06-08T11:47:18.927Z,8512.00
2019-06-08T11:48:18.921Z,7752.00
2019-06-08T11:49:19.021Z,8664.00
2019-06-08T11:50:18.888Z,11308.00
2019-06-08T11:51:18.904Z,16096.00
2019-06-08T11:52:19.795Z,17152.00
2019-06-08T11:53:18.849Z,17024.00
2019-06-08T11:54:33.027Z,16896.00
2019-06-08T11:55:19.830Z,17472.00
2019-06-08T11:56:18.881Z,18176.00
2019-06-08T11:57:21.791Z,20448.00
2019-06-08T11:58:22.707Z,10476.00
2019-06-08T11:59:18.810Z,20704.00
2019-06-08T12:00:27.421Z,28960.00
2019-06-08T12:01:19.822Z,17120.00
2019-06-08T12:02:19.368Z,17312.00
2019-06-08T12:03:18.762Z,17120.00
2019-06-08T12:04:18.740Z,18208.00
2019-06-08T12:05:18.717Z,18400.00
2019-06-08T12:06:18.781Z,35168.00
2019-06-08T12:07:18.690Z,22976.00
2019-06-08T12:08:20.901Z,28672.00
2019-06-08T12:09:19.094Z,37536.00
2019-06-08T12:10:18.717Z,51136.00
2019-06-08T12:11:20.861Z,30944.00
2019-06-08T12:12:21.176Z,44128.00
2019-06-08T12:13:18.663Z,22752.00
2019-06-08T12:14:18.652Z,26496.00
2019-06-08T12:15:21.194Z,21728.00
2019-06-08T12:16:22.029Z,27712.00
2019-06-08T12:17:22.215Z,52256.00
2019-06-08T12:18:18.601Z,32128.00
2019-06-08T12:19:20.943Z,15296.00
2019-06-08T12:20:21.279Z,51200.00
2019-06-08T12:21:19.570Z,44384.00